sensor_id;sensor_type;location;lat;lon;timestamp;P1;durP1;ratioP1;P2;durP2;ratioP2
43150;SDS011;28755;51.478;5.702;2022-12-10T00:01:46;60.50;;;31.98;;
43150;SDS011;28755;51.478;5.702;2022-12-10T00:04:13;61.40;;;31.60;;
43150;SDS011;28755;51.478;5.702;2022-12-10T00:06:39;65.82;;;32.28;;
43150;SDS011;28755;51.478;5.702;2022-12-10T00:09:06;67.78;;;32.78;;
43150;SDS011;28755;51.478;5.702;2022-12-10T00:11:34;67.85;;;32.30;;
43150;SDS011;28755;51.478;5.702;2022-12-10T00:13:59;71.07;;;35.10;;
43150;SDS011;28755;51.478;5.702;2022-12-10T00:16:26;72.20;;;35.50;;
43150;SDS011;28755;51.478;5.702;2022-12-10T00:18:53;65.28;;;33.30;;
43150;SDS011;28755;51.478;5.702;2022-12-10T00:21:20;68.38;;;33.67;;
43150;SDS011;28755;51.478;5.702;2022-12-10T00:23:48;77.07;;;35.95;;
43150;SDS011;28755;51.478;5.702;2022-12-10T00:26:17;68.90;;;34.20;;
43150;SDS011;28755;51.478;5.702;2022-12-10T00:28:46;67.90;;;34.15;;
43150;SDS011;28755;51.478;5.702;2022-12-10T00:31:14;74.03;;;34.85;;
43150;SDS011;28755;51.478;5.702;2022-12-10T00:33:41;74.33;;;34.80;;
43150;SDS011;28755;51.478;5.702;2022-12-10T00:36:09;77.72;;;34.50;;
43150;SDS011;28755;51.478;5.702;2022-12-10T00:38:46;73.88;;;34.92;;
43150;SDS011;28755;51.478;5.702;2022-12-10T00:41:12;69.13;;;34.08;;
43150;SDS011;28755;51.478;5.702;2022-12-10T00:43:39;70.20;;;34.75;;
43150;SDS011;28755;51.478;5.702;2022-12-10T00:46:05;67.28;;;33.28;;
43150;SDS011;28755;51.478;5.702;2022-12-10T00:48:31;67.90;;;34.40;;
43150;SDS011;28755;51.478;5.702;2022-12-10T00:51:19;68.97;;;33.72;;
43150;SDS011;28755;51.478;5.702;2022-12-10T00:53:44;65.55;;;32.40;;
43150;SDS011;28755;51.478;5.702;2022-12-10T00:56:11;71.35;;;34.53;;
43150;SDS011;28755;51.478;5.702;2022-12-10T00:58:39;71.68;;;34.67;;
43150;SDS011;28755;51.478;5.702;2022-12-10T01:03:45;66.05;;;33.78;;
43150;SDS011;28755;51.478;5.702;2022-12-10T01:06:13;65.22;;;31.58;;
43150;SDS011;28755;51.478;5.702;2022-12-10T01:08:41;70.80;;;34.03;;
43150;SDS011;28755;51.478;5.702;2022-12-10T01:11:09;71.10;;;34.05;;
43150;SDS011;28755;51.478;5.702;2022-12-10T01:13:35;69.43;;;33.42;;
43150;SDS011;28755;51.478;5.702;2022-12-10T01:16:02;65.53;;;33.65;;
43150;SDS011;28755;51.478;5.702;2022-12-10T01:18:30;66.25;;;32.88;;
43150;SDS011;28755;51.478;5.702;2022-12-10T01:21:00;68.20;;;34.28;;
43150;SDS011;28755;51.478;5.702;2022-12-10T01:23:27;66.82;;;33.30;;
43150;SDS011;28755;51.478;5.702;2022-12-10T01:25:52;66.18;;;33.13;;
43150;SDS011;28755;51.478;5.702;2022-12-10T01:28:18;70.18;;;34.22;;
43150;SDS011;28755;51.478;5.702;2022-12-10T01:30:43;69.53;;;32.85;;
43150;SDS011;28755;51.478;5.702;2022-12-10T01:33:09;70.10;;;32.70;;
43150;SDS011;28755;51.478;5.702;2022-12-10T01:35:36;67.25;;;33.83;;
43150;SDS011;28755;51.478;5.702;2022-12-10T01:38:02;69.53;;;33.17;;
43150;SDS011;28755;51.478;5.702;2022-12-10T01:40:28;71.22;;;32.88;;
43150;SDS011;28755;51.478;5.702;2022-12-10T01:42:55;68.40;;;33.60;;
43150;SDS011;28755;51.478;5.702;2022-12-10T01:45:21;72.50;;;35.47;;
43150;SDS011;28755;51.478;5.702;2022-12-10T01:47:47;71.88;;;34.65;;
43150;SDS011;28755;51.478;5.702;2022-12-10T01:50:13;74.50;;;35.28;;
43150;SDS011;28755;51.478;5.702;2022-12-10T01:52:38;66.38;;;33.65;;
43150;SDS011;28755;51.478;5.702;2022-12-10T01:55:34;72.85;;;35.28;;
43150;SDS011;28755;51.478;5.702;2022-12-10T01:58:02;75.65;;;37.03;;
43150;SDS011;28755;51.478;5.702;2022-12-10T02:00:28;74.70;;;35.72;;
43150;SDS011;28755;51.478;5.702;2022-12-10T02:03:02;75.13;;;36.05;;
43150;SDS011;28755;51.478;5.702;2022-12-10T02:05:42;71.13;;;35.20;;
43150;SDS011;28755;51.478;5.702;2022-12-10T02:08:27;77.40;;;35.40;;
43150;SDS011;28755;51.478;5.702;2022-12-10T02:13:47;70.47;;;36.05;;
43150;SDS011;28755;51.478;5.702;2022-12-10T02:16:33;76.00;;;36.00;;
43150;SDS011;28755;51.478;5.702;2022-12-10T02:19:15;81.40;;;37.40;;
43150;SDS011;28755;51.478;5.702;2022-12-10T02:21:53;73.43;;;37.08;;
43150;SDS011;28755;51.478;5.702;2022-12-10T02:24:23;89.72;;;40.10;;
43150;SDS011;28755;51.478;5.702;2022-12-10T02:26:56;81.65;;;37.60;;
43150;SDS011;28755;51.478;5.702;2022-12-10T02:29:27;82.28;;;38.00;;
43150;SDS011;28755;51.478;5.702;2022-12-10T02:31:56;79.45;;;37.88;;
43150;SDS011;28755;51.478;5.702;2022-12-10T02:34:28;83.32;;;39.28;;
43150;SDS011;28755;51.478;5.702;2022-12-10T02:36:59;85.10;;;40.05;;
43150;SDS011;28755;51.478;5.702;2022-12-10T02:39:29;91.72;;;40.38;;
43150;SDS011;28755;51.478;5.702;2022-12-10T02:42:00;91.32;;;40.42;;
43150;SDS011;28755;51.478;5.702;2022-12-10T02:44:28;105.38;;;42.67;;
43150;SDS011;28755;51.478;5.702;2022-12-10T02:46:55;100.85;;;43.15;;
43150;SDS011;28755;51.478;5.702;2022-12-10T02:49:22;106.07;;;43.95;;
43150;SDS011;28755;51.478;5.702;2022-12-10T02:51:49;93.38;;;43.67;;
43150;SDS011;28755;51.478;5.702;2022-12-10T02:54:34;102.28;;;42.28;;
43150;SDS011;28755;51.478;5.702;2022-12-10T03:08:50;123.57;;;44.90;;
43150;SDS011;28755;51.478;5.702;2022-12-10T03:11:22;137.05;;;48.22;;
43150;SDS011;28755;51.478;5.702;2022-12-10T03:13:58;136.40;;;48.33;;
43150;SDS011;28755;51.478;5.702;2022-12-10T03:16:47;130.95;;;47.03;;
43150;SDS011;28755;51.478;5.702;2022-12-10T03:19:20;139.43;;;49.58;;
43150;SDS011;28755;51.478;5.702;2022-12-10T03:21:49;137.05;;;49.50;;
43150;SDS011;28755;51.478;5.702;2022-12-10T03:24:17;143.20;;;50.33;;
43150;SDS011;28755;51.478;5.702;2022-12-10T03:26:44;151.57;;;50.95;;
43150;SDS011;28755;51.478;5.702;2022-12-10T03:29:14;141.13;;;49.67;;
43150;SDS011;28755;51.478;5.702;2022-12-10T03:31:44;141.02;;;50.17;;
43150;SDS011;28755;51.478;5.702;2022-12-10T03:34:11;147.32;;;52.10;;
43150;SDS011;28755;51.478;5.702;2022-12-10T03:36:37;148.15;;;53.40;;
43150;SDS011;28755;51.478;5.702;2022-12-10T03:39:04;137.57;;;50.55;;
43150;SDS011;28755;51.478;5.702;2022-12-10T03:41:31;129.75;;;49.15;;
43150;SDS011;28755;51.478;5.702;2022-12-10T03:43:57;136.73;;;50.25;;
43150;SDS011;28755;51.478;5.702;2022-12-10T03:46:24;138.05;;;50.95;;
43150;SDS011;28755;51.478;5.702;2022-12-10T03:48:53;147.20;;;52.15;;
43150;SDS011;28755;51.478;5.702;2022-12-10T03:51:20;138.75;;;50.55;;
43150;SDS011;28755;51.478;5.702;2022-12-10T03:53:45;144.70;;;51.75;;
43150;SDS011;28755;51.478;5.702;2022-12-10T03:56:13;151.65;;;51.28;;
43150;SDS011;28755;51.478;5.702;2022-12-10T03:58:39;159.00;;;53.65;;
43150;SDS011;28755;51.478;5.702;2022-12-10T04:01:05;153.40;;;52.35;;
43150;SDS011;28755;51.478;5.702;2022-12-10T04:03:33;146.38;;;51.65;;
43150;SDS011;28755;51.478;5.702;2022-12-10T04:06:01;140.63;;;49.25;;
43150;SDS011;28755;51.478;5.702;2022-12-10T04:08:28;147.32;;;52.03;;
43150;SDS011;28755;51.478;5.702;2022-12-10T04:10:54;139.90;;;50.22;;
43150;SDS011;28755;51.478;5.702;2022-12-10T04:13:19;137.52;;;49.45;;
43150;SDS011;28755;51.478;5.702;2022-12-10T04:16:04;140.52;;;49.33;;
43150;SDS011;28755;51.478;5.702;2022-12-10T04:18:48;144.00;;;49.78;;
43150;SDS011;28755;51.478;5.702;2022-12-10T04:21:13;154.43;;;52.05;;
43150;SDS011;28755;51.478;5.702;2022-12-10T04:23:57;154.20;;;51.20;;
43150;SDS011;28755;51.478;5.702;2022-12-10T04:26:42;155.07;;;51.65;;
43150;SDS011;28755;51.478;5.702;2022-12-10T04:29:23;154.40;;;52.20;;
43150;SDS011;28755;51.478;5.702;2022-12-10T04:31:51;141.10;;;49.85;;
43150;SDS011;28755;51.478;5.702;2022-12-10T04:34:17;143.75;;;50.00;;
43150;SDS011;28755;51.478;5.702;2022-12-10T04:36:42;160.05;;;52.72;;
43150;SDS011;28755;51.478;5.702;2022-12-10T04:39:08;152.88;;;51.40;;
43150;SDS011;28755;51.478;5.702;2022-12-10T04:41:36;152.35;;;52.30;;
43150;SDS011;28755;51.478;5.702;2022-12-10T04:44:04;145.50;;;50.08;;
43150;SDS011;28755;51.478;5.702;2022-12-10T04:46:29;142.90;;;48.55;;
43150;SDS011;28755;51.478;5.702;2022-12-10T04:48:55;142.38;;;49.80;;
43150;SDS011;28755;51.478;5.702;2022-12-10T04:51:20;141.98;;;49.38;;
43150;SDS011;28755;51.478;5.702;2022-12-10T04:53:46;137.48;;;48.20;;
43150;SDS011;28755;51.478;5.702;2022-12-10T04:56:12;149.23;;;50.75;;
43150;SDS011;28755;51.478;5.702;2022-12-10T04:58:37;148.27;;;50.75;;
43150;SDS011;28755;51.478;5.702;2022-12-10T05:01:03;155.50;;;52.05;;
43150;SDS011;28755;51.478;5.702;2022-12-10T05:03:31;150.13;;;51.45;;
43150;SDS011;28755;51.478;5.702;2022-12-10T05:06:01;152.95;;;51.38;;
43150;SDS011;28755;51.478;5.702;2022-12-10T05:08:27;140.50;;;50.83;;
43150;SDS011;28755;51.478;5.702;2022-12-10T05:10:53;149.88;;;50.50;;
43150;SDS011;28755;51.478;5.702;2022-12-10T05:13:19;141.00;;;51.55;;
43150;SDS011;28755;51.478;5.702;2022-12-10T05:15:45;155.75;;;50.45;;
43150;SDS011;28755;51.478;5.702;2022-12-10T05:18:10;143.93;;;49.75;;
43150;SDS011;28755;51.478;5.702;2022-12-10T05:20:36;153.13;;;49.15;;
43150;SDS011;28755;51.478;5.702;2022-12-10T05:23:01;144.73;;;48.88;;
43150;SDS011;28755;51.478;5.702;2022-12-10T05:25:46;149.50;;;48.53;;
43150;SDS011;28755;51.478;5.702;2022-12-10T05:28:21;141.00;;;46.75;;
43150;SDS011;28755;51.478;5.702;2022-12-10T05:30:47;141.52;;;47.42;;
43150;SDS011;28755;51.478;5.702;2022-12-10T05:33:13;154.65;;;51.10;;
43150;SDS011;28755;51.478;5.702;2022-12-10T05:35:38;148.18;;;50.40;;
43150;SDS011;28755;51.478;5.702;2022-12-10T05:38:04;154.77;;;49.45;;
43150;SDS011;28755;51.478;5.702;2022-12-10T05:40:33;162.95;;;50.38;;
43150;SDS011;28755;51.478;5.702;2022-12-10T05:43:00;155.40;;;52.47;;
43150;SDS011;28755;51.478;5.702;2022-12-10T05:45:25;159.82;;;52.00;;
43150;SDS011;28755;51.478;5.702;2022-12-10T05:47:51;157.50;;;51.08;;
43150;SDS011;28755;51.478;5.702;2022-12-10T05:50:17;137.95;;;50.38;;
43150;SDS011;28755;51.478;5.702;2022-12-10T05:52:42;147.85;;;48.88;;
43150;SDS011;28755;51.478;5.702;2022-12-10T05:55:08;153.73;;;52.05;;
43150;SDS011;28755;51.478;5.702;2022-12-10T05:57:35;149.80;;;50.40;;
43150;SDS011;28755;51.478;5.702;2022-12-10T06:00:02;159.75;;;50.65;;
43150;SDS011;28755;51.478;5.702;2022-12-10T06:02:29;153.13;;;51.20;;
43150;SDS011;28755;51.478;5.702;2022-12-10T06:04:58;154.27;;;50.75;;
43150;SDS011;28755;51.478;5.702;2022-12-10T06:07:23;155.23;;;51.42;;
43150;SDS011;28755;51.478;5.702;2022-12-10T06:09:49;153.65;;;50.08;;
43150;SDS011;28755;51.478;5.702;2022-12-10T06:12:15;140.15;;;48.22;;
43150;SDS011;28755;51.478;5.702;2022-12-10T06:14:41;143.30;;;48.00;;
43150;SDS011;28755;51.478;5.702;2022-12-10T06:17:06;144.60;;;49.67;;
43150;SDS011;28755;51.478;5.702;2022-12-10T06:19:32;143.95;;;49.10;;
43150;SDS011;28755;51.478;5.702;2022-12-10T06:21:57;142.05;;;48.95;;
43150;SDS011;28755;51.478;5.702;2022-12-10T06:24:23;142.38;;;48.75;;
43150;SDS011;28755;51.478;5.702;2022-12-10T06:26:49;145.02;;;46.85;;
43150;SDS011;28755;51.478;5.702;2022-12-10T06:29:15;146.52;;;50.55;;
43150;SDS011;28755;51.478;5.702;2022-12-10T06:31:40;140.70;;;47.78;;
43150;SDS011;28755;51.478;5.702;2022-12-10T06:34:06;127.80;;;45.33;;
43150;SDS011;28755;51.478;5.702;2022-12-10T06:36:31;137.23;;;48.55;;
43150;SDS011;28755;51.478;5.702;2022-12-10T06:38:57;132.98;;;46.72;;
43150;SDS011;28755;51.478;5.702;2022-12-10T06:41:23;134.55;;;43.47;;
43150;SDS011;28755;51.478;5.702;2022-12-10T06:43:48;139.35;;;47.42;;
43150;SDS011;28755;51.478;5.702;2022-12-10T06:46:15;134.90;;;43.80;;
43150;SDS011;28755;51.478;5.702;2022-12-10T06:48:42;133.85;;;43.08;;
43150;SDS011;28755;51.478;5.702;2022-12-10T06:51:09;146.40;;;44.75;;
43150;SDS011;28755;51.478;5.702;2022-12-10T06:53:36;143.88;;;44.03;;
43150;SDS011;28755;51.478;5.702;2022-12-10T06:56:04;135.95;;;41.53;;
43150;SDS011;28755;51.478;5.702;2022-12-10T06:58:31;132.27;;;40.75;;
43150;SDS011;28755;51.478;5.702;2022-12-10T07:01:05;140.20;;;42.88;;
43150;SDS011;28755;51.478;5.702;2022-12-10T07:03:32;139.32;;;41.55;;
43150;SDS011;28755;51.478;5.702;2022-12-10T07:05:58;143.95;;;42.00;;
43150;SDS011;28755;51.478;5.702;2022-12-10T07:08:24;138.45;;;42.78;;
43150;SDS011;28755;51.478;5.702;2022-12-10T07:10:50;135.80;;;42.55;;
43150;SDS011;28755;51.478;5.702;2022-12-10T07:13:16;129.63;;;42.03;;
43150;SDS011;28755;51.478;5.702;2022-12-10T07:15:42;126.95;;;41.60;;
43150;SDS011;28755;51.478;5.702;2022-12-10T07:18:07;124.88;;;41.03;;
43150;SDS011;28755;51.478;5.702;2022-12-10T07:20:33;119.85;;;40.85;;
43150;SDS011;28755;51.478;5.702;2022-12-10T07:22:58;122.10;;;39.60;;
43150;SDS011;28755;51.478;5.702;2022-12-10T07:25:24;118.50;;;37.65;;
43150;SDS011;28755;51.478;5.702;2022-12-10T07:27:50;125.30;;;39.47;;
43150;SDS011;28755;51.478;5.702;2022-12-10T07:30:15;125.32;;;40.58;;
43150;SDS011;28755;51.478;5.702;2022-12-10T07:32:41;117.95;;;40.55;;
43150;SDS011;28755;51.478;5.702;2022-12-10T07:35:07;134.48;;;41.90;;
43150;SDS011;28755;51.478;5.702;2022-12-10T07:37:33;129.68;;;42.42;;
43150;SDS011;28755;51.478;5.702;2022-12-10T07:39:58;125.63;;;40.97;;
43150;SDS011;28755;51.478;5.702;2022-12-10T07:42:24;137.52;;;42.60;;
43150;SDS011;28755;51.478;5.702;2022-12-10T07:44:49;128.45;;;40.15;;
43150;SDS011;28755;51.478;5.702;2022-12-10T07:47:15;126.13;;;41.97;;
43150;SDS011;28755;51.478;5.702;2022-12-10T07:49:41;119.18;;;39.45;;
43150;SDS011;28755;51.478;5.702;2022-12-10T07:52:07;128.90;;;41.80;;
43150;SDS011;28755;51.478;5.702;2022-12-10T07:54:33;112.25;;;39.55;;
43150;SDS011;28755;51.478;5.702;2022-12-10T07:56:59;116.65;;;38.92;;
43150;SDS011;28755;51.478;5.702;2022-12-10T07:59:24;133.20;;;40.42;;
43150;SDS011;28755;51.478;5.702;2022-12-10T08:01:50;125.78;;;40.17;;
43150;SDS011;28755;51.478;5.702;2022-12-10T08:04:16;103.68;;;37.13;;
43150;SDS011;28755;51.478;5.702;2022-12-10T08:06:41;128.30;;;40.35;;
43150;SDS011;28755;51.478;5.702;2022-12-10T08:09:07;123.40;;;39.67;;
43150;SDS011;28755;51.478;5.702;2022-12-10T08:11:34;116.70;;;38.65;;
43150;SDS011;28755;51.478;5.702;2022-12-10T08:14:00;121.03;;;39.25;;
43150;SDS011;28755;51.478;5.702;2022-12-10T08:16:26;139.80;;;40.15;;
43150;SDS011;28755;51.478;5.702;2022-12-10T08:18:54;135.18;;;39.15;;
43150;SDS011;28755;51.478;5.702;2022-12-10T08:21:22;134.95;;;41.92;;
43150;SDS011;28755;51.478;5.702;2022-12-10T08:23:49;122.18;;;40.05;;
43150;SDS011;28755;51.478;5.702;2022-12-10T08:26:16;116.25;;;39.38;;
43150;SDS011;28755;51.478;5.702;2022-12-10T08:28:43;124.70;;;40.40;;
43150;SDS011;28755;51.478;5.702;2022-12-10T08:31:10;130.43;;;39.78;;
43150;SDS011;28755;51.478;5.702;2022-12-10T08:33:37;122.95;;;40.25;;
43150;SDS011;28755;51.478;5.702;2022-12-10T08:36:03;117.72;;;38.88;;
43150;SDS011;28755;51.478;5.702;2022-12-10T08:38:30;117.10;;;39.60;;
43150;SDS011;28755;51.478;5.702;2022-12-10T08:40:56;137.93;;;42.88;;
43150;SDS011;28755;51.478;5.702;2022-12-10T08:43:21;129.27;;;40.92;;
43150;SDS011;28755;51.478;5.702;2022-12-10T08:45:47;134.27;;;41.80;;
43150;SDS011;28755;51.478;5.702;2022-12-10T08:48:13;140.52;;;40.53;;
43150;SDS011;28755;51.478;5.702;2022-12-10T08:50:38;129.30;;;41.67;;
43150;SDS011;28755;51.478;5.702;2022-12-10T08:53:04;138.27;;;42.53;;
43150;SDS011;28755;51.478;5.702;2022-12-10T08:55:30;153.80;;;42.97;;
43150;SDS011;28755;51.478;5.702;2022-12-10T08:57:56;156.52;;;43.25;;
43150;SDS011;28755;51.478;5.702;2022-12-10T09:00:22;137.77;;;41.80;;
43150;SDS011;28755;51.478;5.702;2022-12-10T09:02:48;134.88;;;40.70;;
43150;SDS011;28755;51.478;5.702;2022-12-10T09:05:13;140.23;;;41.95;;
43150;SDS011;28755;51.478;5.702;2022-12-10T09:07:39;135.35;;;42.20;;
43150;SDS011;28755;51.478;5.702;2022-12-10T09:10:05;151.15;;;41.53;;
43150;SDS011;28755;51.478;5.702;2022-12-10T09:12:32;136.38;;;41.10;;
43150;SDS011;28755;51.478;5.702;2022-12-10T09:14:58;132.90;;;41.92;;
43150;SDS011;28755;51.478;5.702;2022-12-10T09:17:24;143.63;;;42.15;;
43150;SDS011;28755;51.478;5.702;2022-12-10T09:19:50;145.75;;;41.90;;
43150;SDS011;28755;51.478;5.702;2022-12-10T09:22:15;157.35;;;44.65;;
43150;SDS011;28755;51.478;5.702;2022-12-10T09:24:41;159.43;;;43.53;;
43150;SDS011;28755;51.478;5.702;2022-12-10T09:27:07;141.23;;;42.20;;
43150;SDS011;28755;51.478;5.702;2022-12-10T09:29:32;145.57;;;43.75;;
43150;SDS011;28755;51.478;5.702;2022-12-10T09:31:58;157.00;;;43.08;;
43150;SDS011;28755;51.478;5.702;2022-12-10T09:34:23;157.88;;;44.38;;
43150;SDS011;28755;51.478;5.702;2022-12-10T09:36:49;164.15;;;43.83;;
43150;SDS011;28755;51.478;5.702;2022-12-10T09:39:14;158.77;;;43.40;;
43150;SDS011;28755;51.478;5.702;2022-12-10T09:41:45;143.60;;;42.15;;
43150;SDS011;28755;51.478;5.702;2022-12-10T09:47:11;154.38;;;42.40;;
43150;SDS011;28755;51.478;5.702;2022-12-10T09:52:22;166.20;;;45.35;;
43150;SDS011;28755;51.478;5.702;2022-12-10T09:54:52;153.45;;;42.13;;
43150;SDS011;28755;51.478;5.702;2022-12-10T09:59:55;161.52;;;43.60;;
43150;SDS011;28755;51.478;5.702;2022-12-10T10:02:24;146.48;;;40.88;;
43150;SDS011;28755;51.478;5.702;2022-12-10T10:05:00;153.68;;;42.83;;
43150;SDS011;28755;51.478;5.702;2022-12-10T10:07:28;158.73;;;41.00;;
43150;SDS011;28755;51.478;5.702;2022-12-10T10:09:59;148.98;;;42.22;;
43150;SDS011;28755;51.478;5.702;2022-12-10T10:12:30;159.45;;;42.38;;
43150;SDS011;28755;51.478;5.702;2022-12-10T10:14:58;158.45;;;43.60;;
43150;SDS011;28755;51.478;5.702;2022-12-10T10:17:35;174.82;;;42.80;;
43150;SDS011;28755;51.478;5.702;2022-12-10T10:20:02;164.32;;;43.67;;
43150;SDS011;28755;51.478;5.702;2022-12-10T10:22:29;164.75;;;44.17;;
43150;SDS011;28755;51.478;5.702;2022-12-10T10:24:55;152.93;;;41.83;;
43150;SDS011;28755;51.478;5.702;2022-12-10T10:27:22;157.63;;;44.58;;
43150;SDS011;28755;51.478;5.702;2022-12-10T10:29:52;156.10;;;42.08;;
43150;SDS011;28755;51.478;5.702;2022-12-10T10:32:21;167.27;;;42.92;;
43150;SDS011;28755;51.478;5.702;2022-12-10T10:34:53;146.20;;;40.90;;
43150;SDS011;28755;51.478;5.702;2022-12-10T10:37:22;142.48;;;40.85;;
43150;SDS011;28755;51.478;5.702;2022-12-10T10:39:53;143.00;;;38.90;;
43150;SDS011;28755;51.478;5.702;2022-12-10T10:42:41;142.38;;;41.47;;
43150;SDS011;28755;51.478;5.702;2022-12-10T10:45:50;179.07;;;39.40;;
43150;SDS011;28755;51.478;5.702;2022-12-10T10:48:05;153.95;;;38.95;;
43150;SDS011;28755;51.478;5.702;2022-12-10T10:50:40;147.48;;;40.38;;
43150;SDS011;28755;51.478;5.702;2022-12-10T10:53:19;143.00;;;39.10;;
43150;SDS011;28755;51.478;5.702;2022-12-10T10:55:46;154.30;;;40.55;;
43150;SDS011;28755;51.478;5.702;2022-12-10T10:58:21;145.48;;;40.35;;
43150;SDS011;28755;51.478;5.702;2022-12-10T11:00:55;139.23;;;38.65;;
43150;SDS011;28755;51.478;5.702;2022-12-10T11:03:30;137.90;;;38.40;;
43150;SDS011;28755;51.478;5.702;2022-12-10T11:05:59;143.60;;;41.03;;
43150;SDS011;28755;51.478;5.702;2022-12-10T11:08:28;144.63;;;39.80;;
43150;SDS011;28755;51.478;5.702;2022-12-10T11:11:01;157.60;;;40.90;;
43150;SDS011;28755;51.478;5.702;2022-12-10T11:13:35;133.55;;;36.92;;
43150;SDS011;28755;51.478;5.702;2022-12-10T11:16:11;119.30;;;35.85;;
43150;SDS011;28755;51.478;5.702;2022-12-10T11:21:26;151.15;;;35.42;;
43150;SDS011;28755;51.478;5.702;2022-12-10T11:23:56;131.27;;;35.80;;
43150;SDS011;28755;51.478;5.702;2022-12-10T11:29:30;157.70;;;36.58;;
43150;SDS011;28755;51.478;5.702;2022-12-10T11:32:14;138.57;;;37.97;;
43150;SDS011;28755;51.478;5.702;2022-12-10T11:34:55;117.00;;;35.30;;
43150;SDS011;28755;51.478;5.702;2022-12-10T11:40:13;130.35;;;37.20;;
43150;SDS011;28755;51.478;5.702;2022-12-10T11:46:13;127.57;;;35.22;;
43150;SDS011;28755;51.478;5.702;2022-12-10T11:54:20;122.75;;;35.47;;
43150;SDS011;28755;51.478;5.702;2022-12-10T11:59:51;123.75;;;36.50;;
43150;SDS011;28755;51.478;5.702;2022-12-10T12:05:36;128.50;;;35.83;;
43150;SDS011;28755;51.478;5.702;2022-12-10T12:13:51;121.85;;;36.35;;
43150;SDS011;28755;51.478;5.702;2022-12-10T12:22:04;110.82;;;36.03;;
43150;SDS011;28755;51.478;5.702;2022-12-10T12:24:40;118.25;;;35.03;;
43150;SDS011;28755;51.478;5.702;2022-12-10T12:29:47;97.32;;;32.53;;
43150;SDS011;28755;51.478;5.702;2022-12-10T12:33:04;98.82;;;31.23;;
43150;SDS011;28755;51.478;5.702;2022-12-10T12:40:56;112.28;;;33.00;;
43150;SDS011;28755;51.478;5.702;2022-12-10T12:46:01;102.32;;;32.28;;
43150;SDS011;28755;51.478;5.702;2022-12-10T12:51:31;114.25;;;35.25;;
43150;SDS011;28755;51.478;5.702;2022-12-10T12:54:01;114.63;;;36.08;;
43150;SDS011;28755;51.478;5.702;2022-12-10T13:04:56;120.93;;;35.85;;
43150;SDS011;28755;51.478;5.702;2022-12-10T13:09:51;117.32;;;37.05;;
43150;SDS011;28755;51.478;5.702;2022-12-10T13:18:02;127.32;;;39.25;;
43150;SDS011;28755;51.478;5.702;2022-12-10T13:25:54;110.80;;;36.17;;
43150;SDS011;28755;51.478;5.702;2022-12-10T13:28:26;115.68;;;37.20;;
43150;SDS011;28755;51.478;5.702;2022-12-10T13:39:36;109.93;;;34.80;;
43150;SDS011;28755;51.478;5.702;2022-12-10T13:42:25;107.50;;;33.95;;
43150;SDS011;28755;51.478;5.702;2022-12-10T13:47:47;123.70;;;34.55;;
43150;SDS011;28755;51.478;5.702;2022-12-10T13:55:38;126.03;;;37.58;;
43150;SDS011;28755;51.478;5.702;2022-12-10T13:58:31;118.50;;;37.60;;
43150;SDS011;28755;51.478;5.702;2022-12-10T14:01:16;122.22;;;37.20;;
43150;SDS011;28755;51.478;5.702;2022-12-10T14:06:47;117.20;;;38.00;;
43150;SDS011;28755;51.478;5.702;2022-12-10T14:09:24;124.75;;;38.28;;
43150;SDS011;28755;51.478;5.702;2022-12-10T14:11:57;121.90;;;36.88;;
43150;SDS011;28755;51.478;5.702;2022-12-10T14:14:30;105.35;;;36.80;;
43150;SDS011;28755;51.478;5.702;2022-12-10T14:17:03;112.97;;;35.67;;
43150;SDS011;28755;51.478;5.702;2022-12-10T14:19:30;118.30;;;37.38;;
43150;SDS011;28755;51.478;5.702;2022-12-10T14:22:03;110.55;;;36.50;;
43150;SDS011;28755;51.478;5.702;2022-12-10T14:24:37;120.60;;;38.17;;
43150;SDS011;28755;51.478;5.702;2022-12-10T14:27:24;126.72;;;38.92;;
43150;SDS011;28755;51.478;5.702;2022-12-10T14:29:52;129.77;;;37.67;;
43150;SDS011;28755;51.478;5.702;2022-12-10T14:32:27;111.13;;;36.17;;
43150;SDS011;28755;51.478;5.702;2022-12-10T14:34:57;118.97;;;38.65;;
43150;SDS011;28755;51.478;5.702;2022-12-10T14:37:25;122.85;;;38.28;;
43150;SDS011;28755;51.478;5.702;2022-12-10T14:39:55;126.07;;;37.95;;
43150;SDS011;28755;51.478;5.702;2022-12-10T14:42:22;133.90;;;39.50;;
43150;SDS011;28755;51.478;5.702;2022-12-10T14:44:55;118.65;;;37.60;;
43150;SDS011;28755;51.478;5.702;2022-12-10T14:47:27;127.50;;;36.97;;
43150;SDS011;28755;51.478;5.702;2022-12-10T14:50:00;123.10;;;37.85;;
43150;SDS011;28755;51.478;5.702;2022-12-10T14:52:33;135.35;;;40.08;;
43150;SDS011;28755;51.478;5.702;2022-12-10T14:55:04;119.53;;;37.83;;
43150;SDS011;28755;51.478;5.702;2022-12-10T14:57:31;112.95;;;35.65;;
43150;SDS011;28755;51.478;5.702;2022-12-10T15:02:34;124.10;;;36.10;;
43150;SDS011;28755;51.478;5.702;2022-12-10T15:05:02;117.38;;;35.08;;
43150;SDS011;28755;51.478;5.702;2022-12-10T15:07:35;112.53;;;34.65;;
43150;SDS011;28755;51.478;5.702;2022-12-10T15:10:04;113.07;;;34.88;;
43150;SDS011;28755;51.478;5.702;2022-12-10T15:12:46;107.55;;;32.30;;
43150;SDS011;28755;51.478;5.702;2022-12-10T15:15:20;116.63;;;32.70;;
43150;SDS011;28755;51.478;5.702;2022-12-10T15:20:52;112.43;;;33.22;;
43150;SDS011;28755;51.478;5.702;2022-12-10T15:25:53;115.78;;;34.15;;
43150;SDS011;28755;51.478;5.702;2022-12-10T15:32:35;125.43;;;36.85;;
43150;SDS011;28755;51.478;5.702;2022-12-10T15:35:01;118.60;;;36.22;;
43150;SDS011;28755;51.478;5.702;2022-12-10T15:37:32;124.93;;;36.85;;
43150;SDS011;28755;51.478;5.702;2022-12-10T15:40:01;123.38;;;33.70;;
43150;SDS011;28755;51.478;5.702;2022-12-10T15:47:47;133.48;;;36.00;;
43150;SDS011;28755;51.478;5.702;2022-12-10T15:50:12;135.35;;;37.05;;
43150;SDS011;28755;51.478;5.702;2022-12-10T15:52:39;133.25;;;35.33;;
43150;SDS011;28755;51.478;5.702;2022-12-10T15:55:05;121.10;;;35.92;;
43150;SDS011;28755;51.478;5.702;2022-12-10T15:57:35;122.93;;;35.47;;
43150;SDS011;28755;51.478;5.702;2022-12-10T16:00:06;133.10;;;37.88;;
43150;SDS011;28755;51.478;5.702;2022-12-10T16:02:37;123.45;;;36.67;;
43150;SDS011;28755;51.478;5.702;2022-12-10T16:05:19;123.68;;;38.83;;
43150;SDS011;28755;51.478;5.702;2022-12-10T16:07:47;114.30;;;34.65;;
43150;SDS011;28755;51.478;5.702;2022-12-10T16:10:15;122.57;;;36.40;;
43150;SDS011;28755;51.478;5.702;2022-12-10T16:12:42;122.40;;;35.88;;
43150;SDS011;28755;51.478;5.702;2022-12-10T16:15:12;132.05;;;37.83;;
43150;SDS011;28755;51.478;5.702;2022-12-10T16:17:46;127.15;;;37.88;;
43150;SDS011;28755;51.478;5.702;2022-12-10T16:22:44;121.05;;;37.75;;
43150;SDS011;28755;51.478;5.702;2022-12-10T16:25:10;122.30;;;35.25;;
43150;SDS011;28755;51.478;5.702;2022-12-10T16:27:35;141.77;;;38.88;;
43150;SDS011;28755;51.478;5.702;2022-12-10T16:30:21;118.32;;;35.95;;
43150;SDS011;28755;51.478;5.702;2022-12-10T16:32:53;139.38;;;36.85;;
43150;SDS011;28755;51.478;5.702;2022-12-10T16:35:20;122.18;;;35.90;;
43150;SDS011;28755;51.478;5.702;2022-12-10T16:37:46;119.35;;;36.22;;
43150;SDS011;28755;51.478;5.702;2022-12-10T16:40:15;130.07;;;35.08;;